Terminal Aerodrome Forecast
Issued by NWS

Home | Current Version | Previous Version | Text Only | Print | Product List | Glossary On
Versions: 1 2 3 4 5 6 7 8 9 10 11 12 13 14 15 16 17 18 19 20 21 22 23 24 25
247
FTUS41 KPBZ 151722
TAFLBE
TAF
KLBE 151722Z 1518/1618 23010KT P6SM OVC035
      TEMPO 1518/1519 OVC030
     FM152200 25010G18KT P6SM VCSH BKN040
     FM160200 25013G25KT P6SM VCSH BKN030
     FM161500 26012G23KT P6SM VCSH BKN060=

USA.gov is the U.S. government's official web portal to all federal, state and local government web resources and services.